27 de maio de 2022

Hora Código Clima Temp. Visibilidade Tecto Vento METAR/SPECI
6:50 da tarde
V
59 °F 6¼ mi+ - 270° 270° 8 kt METAR EDLW 271650Z 27008KT 230V350 CAVOK 15/05 Q1020
6:20 da tarde
V
61 °F 6¼ mi+ - Var Var 10 kt METAR EDLW 271620Z VRB10KT CAVOK 16/05 Q1020
5:50 da tarde
V
61 °F 6¼ mi+ - 280° 280° 8 - 18 kt METAR EDLW 271550Z 28008G18KT 220V350 CAVOK 16/05 Q1020
5:20 da tarde
V
59 °F 6¼ mi+ - 270° 270° 10 - 21 kt METAR EDLW 271520Z 27010G21KT 230V330 CAVOK 15/05 Q1020
4:50 da tarde
V
63 °F 6¼ mi+ - 280° 280° 9 kt METAR EDLW 271450Z 28009KT 230V340 CAVOK 17/06 Q1020
4:20 da tarde
V
63 °F 6¼ mi+ - 280° 280° 10 kt METAR EDLW 271420Z 28010KT 240V330 CAVOK 17/06 Q1020
3:50 da tarde
V
59 °F 6¼ mi+ - 260° 260° 11 kt METAR EDLW 271350Z 26011KT 230V290 CAVOK 15/06 Q1020
3:20 da tarde
V
63 °F 6¼ mi+ - 260° 260° 11 - 21 kt METAR EDLW 271320Z 26011G21KT 230V320 CAVOK 17/08 Q1019
2:50 da tarde
V
63 °F 6¼ mi+ - 270° 270° 10 kt METAR EDLW 271250Z 27010KT 230V360 CAVOK 17/07 Q1019
2:20 da tarde
V
63 °F 6¼ mi+ - 260° 260° 10 kt METAR EDLW 271220Z 26010KT 230V320 9999 FEW046 17/09 Q1019
1:50 da tarde
V
63 °F 6¼ mi+ - 280° 280° 8 kt METAR EDLW 271150Z 28008KT 230V340 CAVOK 17/08 Q1019
1:20 da tarde
V
59 °F 6¼ mi+ - 270° 270° 10 - 22 kt METAR EDLW 271120Z 27010G22KT 230V330 9999 SCT044 15/07 Q1019
12:50 da tarde
V
61 °F 6¼ mi+ - 270° 270° 11 - 21 kt METAR EDLW 271050Z 27011G21KT 230V320 9999 FEW036 16/08 Q1019
12:20 da tarde
V
61 °F 6¼ mi+ - 260° 260° 10 kt METAR EDLW 271020Z 26010KT 220V330 9999 FEW034 SCT041 16/09 Q1019
11:50 da manhã
V
61 °F 6¼ mi+ - 260° 260° 12 - 24 kt METAR EDLW 270950Z 26012G24KT 230V010 9999 SCT049 16/08 Q1019
11:20 da manhã
V
59 °F 6¼ mi+ 3.400 ft 260° 260° 6 kt METAR EDLW 270920Z 26006KT 220V320 9999 SCT022 BKN034 15/10 Q1019
10:50 da manhã
M
59 °F 6¼ mi+ 2.600 ft 250° 250° 8 kt METAR EDLW 270850Z 25008KT 230V300 9999 SCT022 BKN026 15/11 Q1019
10:20 da manhã
M
57 °F 6¼ mi+ 1.900 ft 250° 250° 8 kt METAR EDLW 270820Z 25008KT 220V330 9999 BKN019 14/11 Q1019
9:50 da manhã
V
57 °F 6¼ mi+ - 250° 250° 8 kt METAR EDLW 270750Z 25008KT 9999 FEW010 SCT013 14/10 Q1019
9:20 da manhã
V
57 °F 6¼ mi+ - 240° 240° 9 kt METAR EDLW 270720Z 24009KT 9999 SCT009TCU 14/12 Q1019
8:50 da manhã
V
55 °F 6¼ mi+ - 240° 240° 8 kt METAR EDLW 270650Z 24008KT 9999 FEW008 SCT010 13/12 Q1019
8:20 da manhã
V
55 °F 6¼ mi+ - 230° 230° 9 kt METAR EDLW 270620Z 23009KT 9999 FEW007 13/11 Q1019
7:50 da manhã
V
54 °F 6¼ mi+ 4.800 ft 230° 230° 7 kt METAR EDLW 270550Z 23007KT 9999 FEW030 BKN048 12/11 Q1019
7:20 da manhã
V
54 °F 6¼ mi+ 4.100 ft 230° 230° 9 kt METAR EDLW 270520Z 23009KT 9999 FEW029 BKN041 12/11 Q1019
6:50 da manhã
V
54 °F 6¼ mi+ 3.400 ft 240° 240° 8 kt METAR EDLW 270450Z 24008KT 9999 -DZ FEW017 BKN034 12/11 Q1018
6:20 da manhã
M
54 °F 4⅜ mi 2.200 ft 260° 260° 7 kt METAR EDLW 270420Z 26007KT 230V310 7000 -DZ SCT005 BKN022 12/11 Q1019
5:50 da manhã
I
54 °F 2¼ mi 500 ft 280° 280° 8 kt METAR EDLW 270350Z 28008KT 230V330 3700 DZ BKN005 OVC008 12/11 Q1019
5:20 da manhã
I
55 °F 2⅞ mi 1.700 ft 230° 230° 11 kt METAR EDLW 270320Z 23011KT 4700 -DZ BR SCT008 BKN017 OVC022 13/12 Q1018
4:50 da manhã
M
55 °F 3¾ mi 1.900 ft 230° 230° 12 kt METAR EDLW 270250Z AUTO 23012KT 6000 // FEW010/// OVC019/// 13/12 Q1018
4:20 da manhã
M
55 °F 3¾ mi 2.200 ft 230° 230° 11 kt METAR EDLW 270220Z AUTO 23011KT 6000 // FEW011/// OVC022/// 13/12 Q1018
3:50 da manhã
M
55 °F 3⅛ mi 2.000 ft 230° 230° 12 kt METAR EDLW 270150Z AUTO 23012KT 5000 // FEW010/// BKN020/// OVC025/// 13/12 Q1018
3:20 da manhã
M
55 °F 3⅛ mi 1.700 ft 240° 240° 12 kt METAR EDLW 270120Z AUTO 24012KT 5000 // FEW010/// OVC017/// 13/12 Q1019
2:50 da manhã
M
57 °F 5 mi 2.000 ft 240° 240° 13 kt METAR EDLW 270050Z AUTO 24013KT 8000 // FEW010/// BKN020/// OVC025/// 14/11 Q1019
2:20 da manhã
M
59 °F 6¼ mi+ 2.300 ft 230° 230° 14 kt METAR EDLW 270020Z AUTO 23014KT 9999 // OVC023/// 15/10 Q1019
1:50 da manhã
M
59 °F 6¼ mi+ 2.300 ft 230° 230° 13 kt METAR EDLW 262350Z AUTO 23013KT 9999 // FEW011/// OVC023/// 15/10 Q1019
1:20 da manhã
M
61 °F 6¼ mi+ 2.500 ft 240° 240° 12 kt METAR EDLW 262320Z AUTO 24012KT 9999 // OVC025/// 16/11 Q1019
12:50 da manhã
V
61 °F 6¼ mi+ 3.000 ft 230° 230° 15 kt METAR EDLW 262250Z AUTO 23015KT 9999 // FEW026/// BKN030/// OVC037/// 16/11 Q1019
12:20 da manhã
V
63 °F 6¼ mi+ 3.600 ft 240° 240° 13 kt METAR EDLW 262220Z AUTO 24013KT 9999 // FEW031/// BKN036/// OVC047/// 17/11 Q1019

26 de maio de 2022

Hora Código Clima Temp. Visibilidade Tecto Vento METAR/SPECI
11:50 da tarde
V
63 °F 6¼ mi+ 3.700 ft 240° 240° 14 kt METAR EDLW 262150Z AUTO 24014KT 9999 // SCT032/// BKN037/// OVC042/// 17/11 Q1019
11:20 da tarde
V
63 °F 6¼ mi+ 4.600 ft 240° 240° 12 kt METAR EDLW 262120Z AUTO 24012KT 9999 // FEW033/// OVC046/// 17/11 Q1019
10:50 da tarde
V
63 °F 6¼ mi+ 3.400 ft 240° 240° 12 kt METAR EDLW 262050Z 24012KT 9999 OVC034 17/11 Q1019
10:20 da tarde
V
63 °F 6¼ mi+ 3.500 ft 240° 240° 13 - 24 kt METAR EDLW 262020Z 24013G24KT 9999 FEW027 BKN035 17/11 Q1019
9:50 da tarde
V
64 °F 6¼ mi+ 4.700 ft 230° 230° 11 kt METAR EDLW 261950Z 23011KT 9999 FEW036 OVC047 18/11 Q1019
9:20 da tarde
V
64 °F 6¼ mi+ 4.900 ft 230° 230° 11 kt METAR EDLW 261920Z 23011KT 9999 FEW038 OVC049 18/11 Q1019
8:50 da tarde
V
64 °F 6¼ mi+ 4.800 ft 230° 230° 10 kt METAR EDLW 261850Z 23010KT 9999 FEW040 OVC048 18/10 Q1019
8:20 da tarde
V
64 °F 6¼ mi+ 4.900 ft 230° 230° 10 kt METAR EDLW 261820Z 23010KT 9999 FEW041 OVC049 18/11 Q1019
7:50 da tarde
V
64 °F 6¼ mi+ 4.900 ft 240° 240° 11 kt METAR EDLW 261750Z 24011KT 9999 FEW043 BKN049 18/10 Q1019
7:20 da tarde
V
64 °F 6¼ mi+ - 240° 240° 11 kt METAR EDLW 261720Z 24011KT 9999 SCT042 18/11 Q1019
6:50 da tarde
V
64 °F 6¼ mi+ - 230° 230° 12 kt METAR EDLW 261650Z 23012KT 9999 FEW042 18/10 Q1019
6:20 da tarde
V
64 °F 6¼ mi+ - 240° 240° 14 kt METAR EDLW 261620Z 24014KT 9999 FEW043 18/10 Q1019
5:50 da tarde
V
64 °F 6¼ mi+ - 240° 240° 11 kt METAR EDLW 261550Z 24011KT 9999 FEW042 18/10 Q1020
5:20 da tarde
V
66 °F 6¼ mi+ - 240° 240° 13 kt METAR EDLW 261520Z 24013KT 9999 FEW042 19/10 Q1020
4:50 da tarde
V
64 °F 6¼ mi+ - 230° 230° 14 kt METAR EDLW 261450Z 23014KT 9999 SCT042 18/10 Q1020
4:20 da tarde
V
66 °F 6¼ mi+ - 240° 240° 15 kt METAR EDLW 261420Z 24015KT 9999 FEW044 19/10 Q1020
3:50 da tarde
V
66 °F 6¼ mi+ - 240° 240° 12 kt METAR EDLW 261350Z 24012KT 9999 FEW044 19/09 Q1020
3:20 da tarde
V
64 °F 6¼ mi+ - 230° 230° 13 kt METAR EDLW 261320Z 23013KT CAVOK 18/10 Q1020
2:50 da tarde
V
64 °F 6¼ mi+ - 230° 230° 14 kt METAR EDLW 261250Z 23014KT 9999 FEW042 18/10 Q1021
2:20 da tarde
V
64 °F 6¼ mi+ - 230° 230° 12 kt METAR EDLW 261220Z 23012KT 9999 FEW041 18/10 Q1021
1:50 da tarde
V
63 °F 6¼ mi+ - 230° 230° 13 kt METAR EDLW 261150Z 23013KT 9999 FEW037 17/10 Q1021
1:20 da tarde
V
63 °F 6¼ mi+ - 240° 240° 12 kt METAR EDLW 261120Z 24012KT 9999 SCT036 17/10 Q1021
12:50 da tarde
V
63 °F 6¼ mi+ - 240° 240° 13 kt METAR EDLW 261050Z 24013KT 9999 FEW034 17/10 Q1021
12:20 da tarde
V
63 °F 6¼ mi+ - 240° 240° 12 kt METAR EDLW 261020Z 24012KT 9999 FEW030 17/10 Q1021
11:50 da manhã
V
63 °F 6¼ mi+ - 230° 230° 13 kt METAR EDLW 260950Z 23013KT 9999 SCT025 17/11 Q1021
11:20 da manhã
V
59 °F 6¼ mi+ - 240° 240° 11 kt METAR EDLW 260920Z 24011KT 9999 FEW023 SCT042 15/11 Q1020
10:50 da manhã
V
59 °F 6¼ mi+ - 230° 230° 12 kt METAR EDLW 260850Z 23012KT 9999 FEW017 SCT023 15/11 Q1020
10:20 da manhã
M
61 °F 6¼ mi+ 2.000 ft 230° 230° 11 kt METAR EDLW 260820Z 23011KT 9999 SCT015 BKN020 BKN024 16/12 Q1020
9:50 da manhã
M
57 °F 6¼ mi+ 2.600 ft 230° 230° 12 kt METAR EDLW 260750Z 23012KT 9999 SCT013 BKN026 14/11 Q1020
9:20 da manhã
M
57 °F 6¼ mi+ 2.300 ft 230° 230° 10 kt METAR EDLW 260720Z 23010KT 9999 SCT012 OVC023 14/12 Q1019
8:50 da manhã
M
57 °F 6¼ mi+ 2.500 ft 240° 240° 10 kt METAR EDLW 260650Z 24010KT 9999 SCT010 OVC025 14/12 Q1019
8:20 da manhã
I
57 °F 6¼ mi+ 900 ft 240° 240° 11 kt METAR EDLW 260620Z 24011KT 9999 BKN009 BKN011 OVC018 14/12 Q1019
7:50 da manhã
I
57 °F 6¼ mi+ 900 ft 230° 230° 11 kt METAR EDLW 260550Z 23011KT 9999 BKN009 BKN032 OVC046 14/12 Q1019
7:20 da manhã
M
55 °F 6¼ mi+ 2.900 ft 220° 220° 9 kt METAR EDLW 260520Z 22009KT 9999 FEW011 SCT013 OVC029 13/12 Q1018
6:50 da manhã
M
55 °F 6¼ mi+ 1.600 ft 230° 230° 10 kt METAR EDLW 260450Z 23010KT 9999 -DZ BKN016 OVC020 13/11 Q1018
6:20 da manhã
M
57 °F 6¼ mi+ 2.500 ft 230° 230° 11 kt METAR EDLW 260420Z 23011KT 9999 FEW020 BKN025 14/11 Q1018
5:50 da manhã
M
57 °F 6¼ mi+ 2.100 ft 230° 230° 12 kt METAR EDLW 260350Z 23012KT 9999 OVC021 14/11 Q1017
5:20 da manhã
M
57 °F 6¼ mi+ 2.300 ft 230° 230° 11 kt METAR EDLW 260320Z 23011KT 9999 OVC023 14/10 Q1017
4:50 da manhã
M
57 °F 6¼ mi+ 2.200 ft 230° 230° 10 kt METAR EDLW 260250Z AUTO 23010KT 9999 // OVC022/// 14/10 Q1017
4:20 da manhã
M
57 °F 6¼ mi+ 2.300 ft 230° 230° 12 kt METAR EDLW 260220Z AUTO 23012KT 9999 // OVC023/// 14/10 Q1017
3:50 da manhã
M
57 °F 6¼ mi+ 2.400 ft 230° 230° 11 kt METAR EDLW 260150Z AUTO 23011KT 9999 // OVC024/// 14/10 Q1017
3:20 da manhã
M
57 °F 6¼ mi+ 2.400 ft 230° 230° 12 kt METAR EDLW 260120Z AUTO 23012KT 9999 // OVC024/// 14/09 Q1017
2:50 da manhã
M
57 °F 6¼ mi+ 2.500 ft 230° 230° 12 kt METAR EDLW 260050Z AUTO 23012KT 9999 // OVC025/// 14/10 Q1017
2:20 da manhã
M
59 °F 6¼ mi+ 2.800 ft 220° 220° 12 kt METAR EDLW 260020Z AUTO 22012KT 9999 // BKN028/// OVC033/// 15/09 Q1017
1:50 da manhã
V
59 °F 6¼ mi+ 3.300 ft 230° 230° 11 kt METAR EDLW 252350Z AUTO 23011KT 9999 // OVC033/// 15/08 Q1017
1:20 da manhã
V
59 °F 6¼ mi+ 3.400 ft 230° 230° 10 kt METAR EDLW 252320Z AUTO 23010KT 9999 // OVC034/// 15/09 Q1017
12:50 da manhã
V
59 °F 6¼ mi+ 3.500 ft 240° 240° 12 kt METAR EDLW 252250Z AUTO 24012KT 9999 // FEW027/// OVC035/// 15/08 Q1017
12:20 da manhã
V
59 °F 6¼ mi+ 3.700 ft 240° 240° 15 kt METAR EDLW 252220Z AUTO 24015KT 210V280 9999 // FEW024/// BKN037/// BKN043/// 15/08 Q1017

25 de maio de 2022

Hora Código Clima Temp. Visibilidade Tecto Vento METAR/SPECI
11:50 da tarde
V
59 °F 6¼ mi+ 3.900 ft 230° 230° 12 kt METAR EDLW 252150Z AUTO 23012KT 9999 // FEW020/// OVC039/// 15/08 Q1017
11:20 da tarde
V
59 °F 6¼ mi+ 4.000 ft 230° 230° 16 kt METAR EDLW 252120Z AUTO 23016KT 9999 // FEW028/// BKN040/// BKN047/// 15/07 Q1017
10:50 da tarde
V
61 °F 6¼ mi+ 4.900 ft 230° 230° 15 kt METAR EDLW 252050Z 23015KT 9999 FEW034 SCT042 BKN049 16/07 Q1016
10:20 da tarde
V
61 °F 6¼ mi+ - 230° 230° 13 kt METAR EDLW 252020Z 23013KT 9999 FEW049 16/07 Q1016
9:50 da tarde
V
61 °F 6¼ mi+ - 230° 230° 12 kt METAR EDLW 251950Z 23012KT CAVOK 16/06 Q1016
9:20 da tarde
V
61 °F 6¼ mi+ - 240° 240° 11 kt METAR EDLW 251920Z 24011KT 210V280 CAVOK 16/06 Q1016
8:50 da tarde
V
61 °F 6¼ mi+ - 240° 240° 13 kt METAR EDLW 251850Z 24013KT CAVOK 16/06 Q1016
8:20 da tarde
V
63 °F 6¼ mi+ - 240° 240° 12 kt METAR EDLW 251820Z 24012KT CAVOK 17/06 Q1015
7:50 da tarde
V
63 °F 6¼ mi+ - 240° 240° 13 kt METAR EDLW 251750Z 24013KT CAVOK 17/06 Q1015
7:20 da tarde
V
63 °F 6¼ mi+ - 240° 240° 12 kt METAR EDLW 251720Z 24012KT CAVOK 17/06 Q1015
6:50 da tarde
V
64 °F 6¼ mi+ - 240° 240° 13 kt METAR EDLW 251650Z 24013KT CAVOK 18/05 Q1015
6:20 da tarde
V
64 °F 6¼ mi+ - 230° 230° 12 kt METAR EDLW 251620Z 23012KT CAVOK 18/06 Q1015
5:50 da tarde
V
64 °F 6¼ mi+ - 240° 240° 14 kt METAR EDLW 251550Z 24014KT CAVOK 18/06 Q1015
5:20 da tarde
V
64 °F 6¼ mi+ - 230° 230° 15 kt METAR EDLW 251520Z 23015KT CAVOK 18/07 Q1015
4:50 da tarde
V
64 °F 6¼ mi+ - 240° 240° 13 kt METAR EDLW 251450Z 24013KT CAVOK 18/05 Q1015
Dados mais antigos

Baixe nosso aplicativo

Fácil acesso a todas as condições meteorológicas da aviação no seu celular e no seu tablet.
Com muitas características não disponíveis no site, como suporte offline e uma lista pessoal de aeroportos.

Nós e terceiros acompanhamos seu comportamento na internet em nosso site com cookies. Se você continuar, nós assumimos que você concorda com nossa política de cookies. Saiba mais